LFLY Airport Information

Runway Information
Runway 16 Length 5971 ft width 148 ft
Elevation 648 ft Threshold 984 ft Heading 163
Runway 34 Length 5971 ft Width 148 ft
Elevation 658 ft Threshold 984 ft Heading 343
Airport Frequencies
Type APP Name LYON APP Frequency 119.45 MHZ
Type ATIS Name ATIS Frequency 128.125 MHZ
Type GND Name GND Frequency 121.85 MHZ
Type TWR Name TWR Frequency 118.1 MHZ
Airport Navaids
Airport Weather Information & NOTAM
ADDS - METARS form results

(1655 UTC 27 June 2022)
Data provider http://aviationweather.gov/metar/data/
 
METAR text: LFLY 271630Z AUTO 36011KT CAVOK 20/15 Q1020 TEMPO SCT050TCU
Conditions at: LFLY (LYON/BRON , FR) observed 1630 UTC 27 June 2022
Temperature: 20.0°C (68°F)
Dewpoint: 15.0°C (59°F) [RH = 73%]
Pressure (altimeter): 30.12 inches Hg (1020.0 mb)
Winds: from the N (360 degrees) at 13 MPH (11 knots; 5.7 m/s)
Visibility: 6 or more miles (10+ km)
Ceiling: ceiling and visibility are OK
Clouds: unknown
Weather: no significant weather observed at this time

METAR text: LFLY 271600Z AUTO 36010KT CAVOK 20/14 Q1020 TEMPO SCT050TCU
Conditions at: LFLY (LYON/BRON , FR) observed 1600 UTC 27 June 2022
Temperature: 20.0°C (68°F)
Dewpoint: 14.0°C (57°F) [RH = 68%]
Pressure (altimeter): 30.12 inches Hg (1020.0 mb)
Winds: from the N (360 degrees) at 12 MPH (10 knots; 5.1 m/s)
Visibility: 6 or more miles (10+ km)
Ceiling: ceiling and visibility are OK
Clouds: unknown
Weather: no significant weather observed at this time

Forecast for: LFLY (LYON/BRON , FR)
Text: TAF LFLY 271100Z 2712/2812 34010KT CAVOK
Forecast period: 1200 UTC 27 June 2022 to 1200 UTC 28 June 2022
Forecast type: FROM: standard forecast or significant change
Winds: from the NNW (340 degrees) at 12 MPH (10 knots; 5.1 m/s)
Visibility: 6 or more miles (10+ km)
Ceiling: unknown
Clouds: missing
Weather: NSW  (no significant weather)
Text: PROB30
Forecast period: 1500 to 1800 UTC 27 June 2022
Forecast type: TEMPORARY: The following changes expected for less than half the time period
Visibility: missing
Ceiling: at least 12,000 feet AGL
Clouds: scattered clouds at 5000 feet AGL
Weather: -SHRA  (light rain showers)
Text: TEMPO 2715/2718 -SHRA SCT050TCU
Forecast period: 0300 to 0800 UTC 28 June 2022
Forecast type: TEMPORARY: The following changes expected for less than half the time period
Visibility: missing
Ceiling: 1000 feet AGL
Clouds: broken clouds at 1000 feet AGL
Weather: no significant weather forecast for this period